Fort Jennings, Ohio
Current Conditions -  °F | °C
As of 5:53 AM on Monday 20 Oct 2014 (Local Time) from KAOH Reporting Station
Light Rain Light Rain  
Wind Chill: 44°   Ceiling: 9000
Heat Index: 48°   Visibility: 10mi
Dew Point: 42°   Wind: 9mph
Humidity: 80%   Direction: 200°SSW
Pressure: 29.95"   Gusts: NA
Location:  40.91°N, 84.3°W
Report Text: KAOH 200953Z AUTO 20008KT 10SM -RA FEW065 FEW075 OVC090 09/06 A2995 RMK AO2 RAB42 SLP142 P0000 T00890056
Loading
Personal Weather Stations






























Interactive Weather Map
Tropical Storm Tracking
New forecast layout! Learn more

10-Day Weather Forecast

Advertisements
Track Severe Weather on mobile